Time;durP1;ratioP1;P1;durP2;ratioP2;P2;SDS_P1;SDS_P2;PMS_P1;PMS_P2;Temp;Humidity;BMP_temperature;BMP_pressure;BME280_temperature;BME280_humidity;BME280_pressure;Samples;Min_cycle;Max_cycle;Signal;HPM_P1;HPM_P2
2023/10/31 00:02:14;;;;;;;49.47;46.90;;;;;;;;;;5060786;28;20109;-67
2023/10/31 00:04:39;;;;;;;46.30;43.95;;;;;;;;;;5062644;28;20378;-68
2023/10/31 00:07:04;;;;;;;45.00;42.70;;;;;;;;;;5064777;28;20553;-64
2023/10/31 00:09:30;;;;;;;45.97;43.65;;;;;;;;;;5048379;28;20060;-64
2023/10/31 00:11:55;;;;;;;45.55;43.25;;;;;;;;;;5061338;28;21023;-68
2023/10/31 00:14:20;;;;;;;40.75;38.67;;;;;;;;;;5063639;28;20025;-68
2023/10/31 00:16:48;;;;;;;38.05;36.13;;;;;;;;;;5061971;28;20498;-65
2023/10/31 00:19:14;;;;;;;35.80;33.97;;;;;;;;;;5058920;28;20063;-69
2023/10/31 00:21:39;;;;;;;35.35;33.55;;;;;;;;;;5061880;28;20063;-68
2023/10/31 00:24:05;;;;;;;37.38;35.47;;;;;;;;;;5063502;28;20448;-68
2023/10/31 00:26:30;;;;;;;31.88;30.23;;;;;;;;;;5049767;28;20101;-64
2023/10/31 00:28:55;;;;;;;33.35;31.65;;;;;;;;;;5065333;28;20037;-65
2023/10/31 00:31:21;;;;;;;30.83;29.23;;;;;;;;;;5064099;28;20025;-65
2023/10/31 00:33:46;;;;;;;31.67;30.08;;;;;;;;;;5061601;28;20036;-64
2023/10/31 00:36:11;;;;;;;32.10;30.45;;;;;;;;;;5062235;28;20084;-65
2023/10/31 00:38:37;;;;;;;32.40;30.70;;;;;;;;;;5063336;28;20072;-68
2023/10/31 00:41:02;;;;;;;32.88;31.17;;;;;;;;;;5064636;28;20100;-65
2023/10/31 00:43:28;;;;;;;29.25;27.75;;;;;;;;;;5062001;28;20037;-68
2023/10/31 00:45:54;;;;;;;28.48;26.98;;;;;;;;;;5067400;28;20066;-66
2023/10/31 00:48:20;;;;;;;28.70;27.20;;;;;;;;;;5064409;28;20385;-68
2023/10/31 00:50:45;;;;;;;27.83;26.38;;;;;;;;;;5069413;28;20100;-68
2023/10/31 00:53:10;;;;;;;27.95;26.48;;;;;;;;;;5066112;28;20028;-65
2023/10/31 00:55:36;;;;;;;27.27;25.83;;;;;;;;;;5067760;28;20132;-68
2023/10/31 00:58:01;;;;;;;28.00;26.50;;;;;;;;;;5067878;28;20059;-65
2023/10/31 01:00:26;;;;;;;26.48;25.08;;;;;;;;;;5067196;28;20443;-65
2023/10/31 01:02:52;;;;;;;27.65;26.20;;;;;;;;;;5071354;28;20426;-67
2023/10/31 01:05:17;;;;;;;27.77;26.33;;;;;;;;;;5064375;28;20290;-68
2023/10/31 01:07:43;;;;;;;29.65;28.10;;;;;;;;;;5067103;28;20723;-68
2023/10/31 01:10:08;;;;;;;30.42;28.83;;;;;;;;;;5066860;28;20096;-68
2023/10/31 01:12:34;;;;;;;28.35;26.85;;;;;;;;;;5067900;28;20111;-68
2023/10/31 01:14:59;;;;;;;27.20;25.77;;;;;;;;;;5066026;28;20025;-68
2023/10/31 01:17:25;;;;;;;26.38;24.98;;;;;;;;;;5064262;28;20036;-67
2023/10/31 01:19:50;;;;;;;26.48;25.08;;;;;;;;;;5064428;28;20029;-67
2023/10/31 01:22:15;;;;;;;27.40;26.00;;;;;;;;;;5063454;28;20047;-65
2023/10/31 01:24:41;;;;;;;28.45;26.95;;;;;;;;;;5066531;28;20031;-64
2023/10/31 01:27:06;;;;;;;31.10;29.40;;;;;;;;;;5063834;28;20040;-64
2023/10/31 01:29:31;;;;;;;32.10;30.40;;;;;;;;;;5067311;28;20025;-64
2023/10/31 01:31:57;;;;;;;30.05;28.48;;;;;;;;;;5062866;28;20025;-67
2023/10/31 01:34:23;;;;;;;28.65;27.15;;;;;;;;;;5064304;28;20021;-64
2023/10/31 01:36:49;;;;;;;28.50;27.00;;;;;;;;;;5067155;28;20054;-64
2023/10/31 01:39:14;;;;;;;27.63;26.20;;;;;;;;;;5061039;28;20970;-64
2023/10/31 01:41:43;;;;;;;26.90;25.50;;;;;;;;;;5065303;28;20534;-68
2023/10/31 01:44:09;;;;;;;23.42;22.13;;;;;;;;;;5063843;28;20076;-64
2023/10/31 01:46:35;;;;;;;21.90;20.70;;;;;;;;;;5063349;28;20058;-64
2023/10/31 01:49:00;;;;;;;22.25;21.05;;;;;;;;;;5067749;28;20421;-64
2023/10/31 01:51:26;;;;;;;22.20;21.00;;;;;;;;;;5063940;28;20067;-65
2023/10/31 01:53:52;;;;;;;20.23;19.13;;;;;;;;;;5064533;28;20033;-64
2023/10/31 01:56:19;;;;;;;22.17;20.98;;;;;;;;;;5064499;28;20096;-68
2023/10/31 01:58:46;;;;;;;22.45;21.25;;;;;;;;;;5067759;28;20051;-67
2023/10/31 02:01:12;;;;;;;23.38;22.17;;;;;;;;;;5064838;28;20036;-65
2023/10/31 02:03:38;;;;;;;23.13;21.92;;;;;;;;;;5065140;28;20033;-64
2023/10/31 02:06:04;;;;;;;23.95;22.65;;;;;;;;;;5068667;28;20047;-67
2023/10/31 02:08:30;;;;;;;25.63;24.25;;;;;;;;;;5065133;28;20595;-69
2023/10/31 02:10:55;;;;;;;28.60;27.10;;;;;;;;;;5066229;28;20036;-68
2023/10/31 02:13:20;;;;;;;25.63;24.30;;;;;;;;;;5065717;28;20343;-65
2023/10/31 02:15:46;;;;;;;26.17;24.77;;;;;;;;;;5064616;28;20269;-68
2023/10/31 02:18:11;;;;;;;25.05;23.75;;;;;;;;;;5065107;28;20043;-68
2023/10/31 02:20:37;;;;;;;24.20;22.90;;;;;;;;;;5065371;28;20107;-65
2023/10/31 02:23:03;;;;;;;24.98;23.65;;;;;;;;;;5063406;28;20119;-68
2023/10/31 02:25:29;;;;;;;24.73;23.42;;;;;;;;;;5062248;28;20039;-68
2023/10/31 02:27:54;;;;;;;24.25;22.95;;;;;;;;;;5064673;28;20052;-65
2023/10/31 02:30:19;;;;;;;21.80;20.60;;;;;;;;;;5061340;28;20074;-67
2023/10/31 02:32:45;;;;;;;21.77;20.58;;;;;;;;;;5064746;28;20401;-68
2023/10/31 02:35:12;;;;;;;19.70;18.63;;;;;;;;;;5064370;28;20110;-67
2023/10/31 02:37:37;;;;;;;18.88;17.88;;;;;;;;;;5062772;28;20025;-68
2023/10/31 02:40:03;;;;;;;19.77;18.67;;;;;;;;;;5066615;28;20128;-65
2023/10/31 02:42:29;;;;;;;20.95;19.85;;;;;;;;;;5058203;28;20151;-68
2023/10/31 02:44:54;;;;;;;19.52;18.42;;;;;;;;;;5063640;28;20124;-67
2023/10/31 02:47:20;;;;;;;19.20;18.10;;;;;;;;;;5063526;28;20051;-68
2023/10/31 02:49:45;;;;;;;19.00;18.00;;;;;;;;;;5064047;28;20033;-67
2023/10/31 02:52:11;;;;;;;19.73;18.63;;;;;;;;;;5063675;28;20110;-68
2023/10/31 02:54:36;;;;;;;20.30;19.20;;;;;;;;;;5060803;28;20119;-67
2023/10/31 02:57:02;;;;;;;18.58;17.58;;;;;;;;;;5050684;28;20026;-64
2023/10/31 02:59:27;;;;;;;19.63;18.52;;;;;;;;;;5060894;28;20383;-65
2023/10/31 03:01:53;;;;;;;18.02;17.02;;;;;;;;;;5061187;28;20032;-65
2023/10/31 03:04:19;;;;;;;19.55;18.48;;;;;;;;;;5063749;28;20042;-65
2023/10/31 03:06:44;;;;;;;20.15;19.05;;;;;;;;;;5060604;28;20028;-65
2023/10/31 03:09:09;;;;;;;18.73;17.73;;;;;;;;;;5065000;28;20045;-67
2023/10/31 03:11:35;;;;;;;19.73;18.63;;;;;;;;;;5062293;28;20032;-64
2023/10/31 03:14:00;;;;;;;20.23;19.13;;;;;;;;;;5063331;28;20051;-67
2023/10/31 03:16:26;;;;;;;19.75;18.65;;;;;;;;;;5058232;28;20090;-64
2023/10/31 03:18:52;;;;;;;18.83;17.83;;;;;;;;;;5061492;28;20040;-65
2023/10/31 03:21:17;;;;;;;19.20;18.20;;;;;;;;;;5060095;28;20119;-64
2023/10/31 03:23:47;;;;;;;19.67;18.58;;;;;;;;;;5058067;28;20516;-64
2023/10/31 03:26:12;;;;;;;18.40;17.40;;;;;;;;;;5063289;28;20112;-66
2023/10/31 03:28:38;;;;;;;19.10;18.08;;;;;;;;;;5064424;28;20132;-67
2023/10/31 03:31:04;;;;;;;19.92;18.83;;;;;;;;;;5062316;28;20048;-67
2023/10/31 03:33:29;;;;;;;21.73;20.52;;;;;;;;;;5060538;28;20121;-67
2023/10/31 03:35:55;;;;;;;19.65;18.55;;;;;;;;;;5067189;28;20044;-67
2023/10/31 03:38:20;;;;;;;20.48;19.38;;;;;;;;;;5062798;28;20051;-67
2023/10/31 03:40:46;;;;;;;21.20;20.05;;;;;;;;;;5062842;28;20036;-65
2023/10/31 03:43:11;;;;;;;21.80;20.63;;;;;;;;;;5064980;28;20069;-64
2023/10/31 03:45:37;;;;;;;23.77;22.50;;;;;;;;;;5062141;28;20036;-68
2023/10/31 03:48:02;;;;;;;23.00;21.80;;;;;;;;;;5059426;28;20074;-67
2023/10/31 03:50:28;;;;;;;23.08;21.88;;;;;;;;;;5060671;28;20036;-64
2023/10/31 03:52:53;;;;;;;22.52;21.33;;;;;;;;;;5064520;28;20047;-67
2023/10/31 03:55:19;;;;;;;23.17;21.88;;;;;;;;;;5062710;28;20041;-65
2023/10/31 03:57:44;;;;;;;22.73;21.52;;;;;;;;;;5061949;28;20058;-68
2023/10/31 04:00:11;;;;;;;21.45;20.25;;;;;;;;;;5067907;28;20427;-67
2023/10/31 04:02:37;;;;;;;21.02;19.90;;;;;;;;;;5060146;28;20064;-68
2023/10/31 04:05:02;;;;;;;21.40;20.23;;;;;;;;;;5066762;28;20381;-68
2023/10/31 04:07:28;;;;;;;20.05;18.95;;;;;;;;;;5060963;28;20060;-65
2023/10/31 04:09:54;;;;;;;19.65;18.55;;;;;;;;;;5064055;28;20033;-68
2023/10/31 04:12:19;;;;;;;22.23;21.02;;;;;;;;;;5063089;28;20028;-68
2023/10/31 04:14:45;;;;;;;20.13;19.02;;;;;;;;;;5063372;28;20052;-67
2023/10/31 04:17:10;;;;;;;21.42;19.85;;;;;;;;;;5062169;28;20032;-68
2023/10/31 04:19:37;;;;;;;22.35;21.15;;;;;;;;;;5063456;28;20362;-66
2023/10/31 04:22:02;;;;;;;21.13;20.02;;;;;;;;;;5064264;28;20532;-69
2023/10/31 04:24:28;;;;;;;21.08;19.98;;;;;;;;;;5063804;28;20115;-65
2023/10/31 04:26:53;;;;;;;21.42;20.25;;;;;;;;;;5066554;28;20028;-65
2023/10/31 04:29:19;;;;;;;21.92;20.75;;;;;;;;;;5065604;28;20029;-68
2023/10/31 04:31:44;;;;;;;22.67;21.48;;;;;;;;;;5064783;28;20107;-69
2023/10/31 04:34:10;;;;;;;22.17;20.98;;;;;;;;;;5063046;28;20087;-66
2023/10/31 04:36:35;;;;;;;20.95;19.85;;;;;;;;;;5064943;28;20033;-66
2023/10/31 04:39:00;;;;;;;21.23;20.13;;;;;;;;;;5066378;28;20120;-68
2023/10/31 04:41:26;;;;;;;22.08;20.88;;;;;;;;;;5065994;28;20036;-69
2023/10/31 04:43:51;;;;;;;20.90;19.80;;;;;;;;;;5067322;28;20124;-68
2023/10/31 04:46:16;;;;;;;21.52;20.38;;;;;;;;;;5064587;28;20020;-68
2023/10/31 04:48:42;;;;;;;21.90;20.70;;;;;;;;;;5065814;28;20063;-68
2023/10/31 04:51:07;;;;;;;22.33;21.13;;;;;;;;;;5069504;28;20028;-66
2023/10/31 04:53:34;;;;;;;20.08;18.98;;;;;;;;;;5065632;28;20086;-68
2023/10/31 04:55:59;;;;;;;20.60;19.50;;;;;;;;;;5070785;28;20040;-66
2023/10/31 04:58:25;;;;;;;20.25;19.15;;;;;;;;;;5066131;28;20032;-66
2023/10/31 05:00:50;;;;;;;20.10;19.00;;;;;;;;;;5070186;28;20135;-66
2023/10/31 05:03:16;;;;;;;21.73;20.42;;;;;;;;;;5066273;28;20034;-68
2023/10/31 05:05:41;;;;;;;20.90;19.80;;;;;;;;;;5062612;28;20061;-68
2023/10/31 05:08:07;;;;;;;22.08;20.88;;;;;;;;;;5065540;28;20354;-66
2023/10/31 05:10:32;;;;;;;22.27;21.08;;;;;;;;;;5061674;28;20087;-66
2023/10/31 05:12:57;;;;;;;23.48;22.25;;;;;;;;;;5065892;28;20028;-68
2023/10/31 05:15:23;;;;;;;25.00;23.70;;;;;;;;;;5062781;28;20020;-69
2023/10/31 05:17:48;;;;;;;23.80;22.50;;;;;;;;;;5062400;28;20035;-68
2023/10/31 05:20:14;;;;;;;24.00;22.70;;;;;;;;;;5065455;28;20412;-65
2023/10/31 05:22:40;;;;;;;23.85;22.60;;;;;;;;;;5062246;28;20067;-68
2023/10/31 05:25:06;;;;;;;22.48;21.27;;;;;;;;;;5065898;28;20036;-65
2023/10/31 05:27:32;;;;;;;23.20;22.00;;;;;;;;;;5064938;28;20464;-67
2023/10/31 05:29:57;;;;;;;23.90;22.60;;;;;;;;;;5066243;28;20115;-67
2023/10/31 05:32:22;;;;;;;20.08;18.98;;;;;;;;;;5060352;28;20515;-65
2023/10/31 05:34:47;;;;;;;20.17;19.08;;;;;;;;;;5068195;28;20136;-67
2023/10/31 05:37:13;;;;;;;19.33;18.17;;;;;;;;;;5061490;28;20659;-68
2023/10/31 05:39:38;;;;;;;19.40;18.30;;;;;;;;;;5067074;28;20059;-65
2023/10/31 05:42:04;;;;;;;20.20;19.10;;;;;;;;;;5063850;28;20100;-65
2023/10/31 05:44:29;;;;;;;20.20;19.08;;;;;;;;;;5063160;28;20121;-64
2023/10/31 05:46:54;;;;;;;22.52;21.33;;;;;;;;;;5061706;28;20033;-65
2023/10/31 05:49:20;;;;;;;21.95;20.75;;;;;;;;;;5062668;28;20039;-65
2023/10/31 05:51:52;;;;;;;22.80;21.60;;;;;;;;;;5063760;28;20042;-65
2023/10/31 05:54:17;;;;;;;22.05;20.85;;;;;;;;;;5063219;28;20036;-64
2023/10/31 05:56:44;;;;;;;23.75;22.45;;;;;;;;;;5064541;28;20113;-67
2023/10/31 05:59:10;;;;;;;23.08;21.88;;;;;;;;;;5065626;28;20043;-67
2023/10/31 06:01:35;;;;;;;23.40;22.20;;;;;;;;;;5062066;28;20029;-65
2023/10/31 06:04:00;;;;;;;25.15;23.83;;;;;;;;;;5061906;28;20029;-64
2023/10/31 06:06:26;;;;;;;21.80;20.60;;;;;;;;;;5062411;28;20036;-68
2023/10/31 06:08:51;;;;;;;23.10;21.80;;;;;;;;;;5063072;28;20036;-67
2023/10/31 06:11:17;;;;;;;23.27;21.77;;;;;;;;;;5062808;28;20940;-65
2023/10/31 06:13:42;;;;;;;22.98;21.77;;;;;;;;;;5063474;28;20036;-67
2023/10/31 06:16:08;;;;;;;23.63;22.38;;;;;;;;;;5064585;28;20487;-67
2023/10/31 06:18:34;;;;;;;24.83;23.52;;;;;;;;;;5065501;28;20055;-65
2023/10/31 06:21:00;;;;;;;22.15;20.92;;;;;;;;;;5072227;28;20059;-67
2023/10/31 06:23:25;;;;;;;20.98;19.85;;;;;;;;;;5060262;28;20193;-65
2023/10/31 06:25:50;;;;;;;20.92;19.83;;;;;;;;;;5067034;28;20039;-64
2023/10/31 06:28:16;;;;;;;20.48;19.38;;;;;;;;;;5064060;28;20872;-65
2023/10/31 06:30:41;;;;;;;20.90;19.75;;;;;;;;;;5061473;28;20032;-67
2023/10/31 06:33:10;;;;;;;21.17;20.08;;;;;;;;;;5060535;28;20044;-68
2023/10/31 06:35:35;;;;;;;21.70;20.50;;;;;;;;;;5057782;28;20078;-67
2023/10/31 06:38:02;;;;;;;23.58;22.33;;;;;;;;;;5063524;28;20397;-67
2023/10/31 06:40:27;;;;;;;21.90;20.70;;;;;;;;;;5062799;28;20645;-67
2023/10/31 06:42:53;;;;;;;22.38;21.17;;;;;;;;;;5060699;28;20040;-65
2023/10/31 06:45:18;;;;;;;22.83;21.63;;;;;;;;;;5063469;28;20041;-65
2023/10/31 06:47:44;;;;;;;24.00;22.70;;;;;;;;;;5061223;28;20114;-68
2023/10/31 06:50:09;;;;;;;22.30;21.10;;;;;;;;;;5060496;28;20060;-64
2023/10/31 06:52:35;;;;;;;23.73;22.48;;;;;;;;;;5056763;28;20040;-67
2023/10/31 06:55:00;;;;;;;28.20;26.65;;;;;;;;;;5062984;28;20122;-67
2023/10/31 06:57:26;;;;;;;26.27;24.90;;;;;;;;;;5060387;28;20024;-65
2023/10/31 06:59:51;;;;;;;28.30;26.83;;;;;;;;;;5059834;28;20029;-65
2023/10/31 07:02:17;;;;;;;30.45;28.85;;;;;;;;;;5060655;28;20450;-68
2023/10/31 07:04:42;;;;;;;28.42;26.92;;;;;;;;;;5063087;28;20037;-68
2023/10/31 07:07:08;;;;;;;26.00;24.63;;;;;;;;;;5058832;28;20033;-65
2023/10/31 07:09:33;;;;;;;28.33;26.83;;;;;;;;;;5062207;28;20482;-67
2023/10/31 07:11:58;;;;;;;30.77;29.17;;;;;;;;;;5063028;28;20362;-66
2023/10/31 07:14:24;;;;;;;29.45;27.85;;;;;;;;;;5060945;28;20373;-67
2023/10/31 07:16:49;;;;;;;26.98;25.58;;;;;;;;;;5059752;28;20037;-67
2023/10/31 07:19:15;;;;;;;28.23;26.75;;;;;;;;;;5060180;28;20366;-65
2023/10/31 07:21:40;;;;;;;29.38;27.85;;;;;;;;;;5061601;28;20063;-66
2023/10/31 07:24:08;;;;;;;31.85;30.25;;;;;;;;;;5056644;28;20048;-67
2023/10/31 07:26:34;;;;;;;32.65;30.95;;;;;;;;;;5059325;28;20029;-67
2023/10/31 07:28:59;;;;;;;32.88;31.17;;;;;;;;;;5061483;28;20036;-65
2023/10/31 07:31:25;;;;;;;35.67;33.88;;;;;;;;;;5058869;28;20558;-68
2023/10/31 07:33:50;;;;;;;32.03;30.38;;;;;;;;;;5061493;28;20039;-64
2023/10/31 07:36:16;;;;;;;32.22;30.58;;;;;;;;;;5058991;28;20113;-65
2023/10/31 07:38:41;;;;;;;33.03;31.33;;;;;;;;;;5059849;28;20498;-65
2023/10/31 07:41:07;;;;;;;35.03;33.20;;;;;;;;;;5060903;28;20673;-65
2023/10/31 07:43:32;;;;;;;34.85;33.08;;;;;;;;;;5059197;28;20099;-64
2023/10/31 07:45:58;;;;;;;36.10;34.22;;;;;;;;;;5061113;28;20139;-65
2023/10/31 07:48:23;;;;;;;36.00;34.10;;;;;;;;;;5061054;28;20071;-67
2023/10/31 07:50:48;;;;;;;36.45;34.60;;;;;;;;;;5061049;28;20446;-68
2023/10/31 07:53:14;;;;;;;41.17;39.00;;;;;;;;;;5058748;28;20418;-65
2023/10/31 07:55:39;;;;;;;37.20;35.30;;;;;;;;;;5063766;28;20036;-68
2023/10/31 07:58:05;;;;;;;37.38;35.45;;;;;;;;;;5064131;28;20063;-67
2023/10/31 08:00:30;;;;;;;40.13;38.10;;;;;;;;;;5062305;28;20844;-65
2023/10/31 08:02:56;;;;;;;36.83;34.92;;;;;;;;;;5063634;28;20421;-65
2023/10/31 08:05:21;;;;;;;37.00;35.13;;;;;;;;;;5069187;28;20584;-67
2023/10/31 08:07:47;;;;;;;37.30;35.40;;;;;;;;;;5065185;28;20028;-65
2023/10/31 08:10:13;;;;;;;39.78;36.92;;;;;;;;;;5064140;28;20033;-68
2023/10/31 08:12:38;;;;;;;41.08;38.97;;;;;;;;;;5063554;28;20043;-68
2023/10/31 08:15:04;;;;;;;43.13;40.92;;;;;;;;;;5064572;28;20032;-67
2023/10/31 08:17:30;;;;;;;42.35;40.10;;;;;;;;;;5064370;28;20072;-68
2023/10/31 08:19:55;;;;;;;44.42;42.17;;;;;;;;;;5069415;28;20064;-65
2023/10/31 08:22:21;;;;;;;44.85;42.58;;;;;;;;;;5061751;28;20525;-68
2023/10/31 08:24:46;;;;;;;40.63;38.58;;;;;;;;;;5067226;28;20460;-68
2023/10/31 08:27:12;;;;;;;40.15;38.10;;;;;;;;;;5066289;28;20389;-68
2023/10/31 08:29:38;;;;;;;43.90;41.67;;;;;;;;;;5064786;28;20641;-65
2023/10/31 08:32:05;;;;;;;42.97;40.78;;;;;;;;;;5063857;28;20036;-67
2023/10/31 08:34:30;;;;;;;43.60;41.38;;;;;;;;;;5061603;28;20024;-65
2023/10/31 08:36:57;;;;;;;48.45;46.00;;;;;;;;;;5063602;28;20040;-66
2023/10/31 08:39:22;;;;;;;46.88;44.28;;;;;;;;;;5062195;28;20448;-67
2023/10/31 08:41:51;;;;;;;46.75;44.38;;;;;;;;;;5065076;28;20036;-67
2023/10/31 08:44:16;;;;;;;44.63;42.35;;;;;;;;;;5063890;28;20037;-68
2023/10/31 08:46:41;;;;;;;43.22;41.03;;;;;;;;;;5064588;28;20366;-65
2023/10/31 08:49:07;;;;;;;49.60;47.08;;;;;;;;;;5061927;28;20038;-65
2023/10/31 08:51:32;;;;;;;48.00;45.60;;;;;;;;;;5068076;28;20036;-68
2023/10/31 08:53:57;;;;;;;40.22;38.20;;;;;;;;;;5059921;28;20028;-68
2023/10/31 08:56:23;;;;;;;40.25;38.22;;;;;;;;;;5066575;28;20033;-67
2023/10/31 08:58:48;;;;;;;38.03;36.10;;;;;;;;;;5063563;28;20045;-68
2023/10/31 09:01:13;;;;;;;42.38;40.22;;;;;;;;;;5066240;28;20051;-68
2023/10/31 09:03:39;;;;;;;37.70;35.80;;;;;;;;;;5063034;28;20346;-65
2023/10/31 09:06:05;;;;;;;37.50;35.60;;;;;;;;;;5060013;28;20417;-66
2023/10/31 09:08:31;;;;;;;36.28;34.40;;;;;;;;;;5063139;28;20028;-64
2023/10/31 09:10:56;;;;;;;42.97;40.80;;;;;;;;;;5062304;28;20078;-67
2023/10/31 09:13:22;;;;;;;34.80;33.00;;;;;;;;;;5064099;28;20047;-65
2023/10/31 09:15:49;;;;;;;38.88;36.88;;;;;;;;;;5064099;28;20025;-65
2023/10/31 09:18:15;;;;;;;40.38;38.30;;;;;;;;;;5058811;28;20111;-67
2023/10/31 09:20:40;;;;;;;34.63;32.83;;;;;;;;;;5064983;28;20147;-65
2023/10/31 09:23:05;;;;;;;35.53;33.72;;;;;;;;;;5062692;28;20033;-68
2023/10/31 09:25:31;;;;;;;35.17;33.38;;;;;;;;;;5061198;28;20422;-65
2023/10/31 09:27:58;;;;;;;34.75;32.95;;;;;;;;;;5062810;28;20040;-68
2023/10/31 09:30:24;;;;;;;39.83;37.72;;;;;;;;;;5061340;28;20039;-65
2023/10/31 09:32:51;;;;;;;35.60;33.78;;;;;;;;;;5061900;28;20103;-67
2023/10/31 09:35:16;;;;;;;36.78;34.88;;;;;;;;;;5063212;28;20040;-65
2023/10/31 09:37:43;;;;;;;34.58;32.78;;;;;;;;;;5060057;28;20035;-66
2023/10/31 09:40:10;;;;;;;34.22;32.42;;;;;;;;;;5062766;28;20064;-65
2023/10/31 09:42:35;;;;;;;32.42;30.67;;;;;;;;;;5063631;28;20028;-65
2023/10/31 09:45:01;;;;;;;30.35;28.75;;;;;;;;;;5064066;28;20544;-65
2023/10/31 09:47:27;;;;;;;32.38;30.67;;;;;;;;;;5062545;28;20074;-65
2023/10/31 09:49:52;;;;;;;28.80;27.30;;;;;;;;;;5060814;28;20135;-67
2023/10/31 09:52:20;;;;;;;28.95;27.45;;;;;;;;;;5060350;28;20098;-65
2023/10/31 09:54:48;;;;;;;29.73;28.13;;;;;;;;;;5059130;28;20469;-65
2023/10/31 09:57:14;;;;;;;29.23;27.50;;;;;;;;;;5060910;28;20024;-64
2023/10/31 09:59:40;;;;;;;28.58;26.98;;;;;;;;;;5063534;28;20028;-67
2023/10/31 10:02:05;;;;;;;27.67;26.23;;;;;;;;;;5062153;28;20124;-67
2023/10/31 10:04:31;;;;;;;30.48;28.67;;;;;;;;;;5063062;28;20031;-67
2023/10/31 10:07:03;;;;;;;32.28;30.58;;;;;;;;;;5061278;28;20498;-65
2023/10/31 10:09:29;;;;;;;30.42;28.83;;;;;;;;;;5057562;28;20098;-65
2023/10/31 10:11:56;;;;;;;30.38;28.77;;;;;;;;;;5058768;28;20047;-64
2023/10/31 10:14:25;;;;;;;33.17;31.48;;;;;;;;;;5061763;28;20032;-65
2023/10/31 10:16:50;;;;;;;30.15;28.55;;;;;;;;;;5060526;28;20032;-67
2023/10/31 10:19:21;;;;;;;30.52;28.92;;;;;;;;;;5063173;28;20855;-68
2023/10/31 10:21:57;;;;;;;31.92;30.25;;;;;;;;;;5060161;28;20032;-67
2023/10/31 10:24:24;;;;;;;31.23;29.63;;;;;;;;;;5059697;28;20104;-67
2023/10/31 10:26:50;;;;;;;34.47;32.67;;;;;;;;;;5060586;28;20036;-67
2023/10/31 10:29:16;;;;;;;29.33;27.83;;;;;;;;;;5059908;28;20140;-68
2023/10/31 10:31:42;;;;;;;27.90;26.40;;;;;;;;;;5059550;28;20526;-67
2023/10/31 10:34:09;;;;;;;27.90;26.42;;;;;;;;;;5057931;28;20036;-66
2023/10/31 10:36:34;;;;;;;27.08;25.67;;;;;;;;;;5060429;28;20032;-66
2023/10/31 10:39:00;;;;;;;26.55;25.15;;;;;;;;;;5056822;28;20037;-68
2023/10/31 10:41:27;;;;;;;26.92;25.33;;;;;;;;;;5059349;28;20032;-67
2023/10/31 10:44:01;;;;;;;28.30;26.80;;;;;;;;;;5059380;28;20167;-68
2023/10/31 10:46:28;;;;;;;27.58;26.05;;;;;;;;;;5058809;28;20079;-65
2023/10/31 10:48:57;;;;;;;26.40;25.00;;;;;;;;;;5060159;28;20067;-65
2023/10/31 10:51:33;;;;;;;25.33;23.92;;;;;;;;;;5059935;28;20632;-67
2023/10/31 10:54:09;;;;;;;23.02;21.83;;;;;;;;;;5059820;28;20036;-66
2023/10/31 10:56:38;;;;;;;23.90;22.63;;;;;;;;;;5059173;28;20103;-65
2023/10/31 10:59:14;;;;;;;22.25;21.05;;;;;;;;;;5059513;28;20039;-64
2023/10/31 11:01:41;;;;;;;24.02;22.75;;;;;;;;;;5059715;28;20063;-64
2023/10/31 11:04:07;;;;;;;23.73;22.42;;;;;;;;;;5061638;28;20044;-64
2023/10/31 11:06:34;;;;;;;22.98;21.77;;;;;;;;;;5055438;28;20043;-64
2023/10/31 11:09:00;;;;;;;22.25;21.05;;;;;;;;;;5059932;28;20526;-63
2023/10/31 11:11:27;;;;;;;22.20;21.00;;;;;;;;;;5057602;28;20052;-64
2023/10/31 11:13:53;;;;;;;23.13;21.92;;;;;;;;;;5059135;28;20029;-64
2023/10/31 11:16:28;;;;;;;23.17;21.98;;;;;;;;;;5058111;28;20565;-67
2023/10/31 11:18:54;;;;;;;20.20;19.10;;;;;;;;;;5058343;28;20437;-63
2023/10/31 11:21:22;;;;;;;20.23;19.02;;;;;;;;;;5058619;28;20068;-64
2023/10/31 11:24:00;;;;;;;18.88;17.88;;;;;;;;;;5059042;28;20087;-63
2023/10/31 11:26:26;;;;;;;24.35;23.05;;;;;;;;;;5064168;28;20090;-63
2023/10/31 11:28:51;;;;;;;24.38;23.08;;;;;;;;;;5060394;28;20102;-67
2023/10/31 11:31:17;;;;;;;22.48;21.27;;;;;;;;;;5061998;28;20461;-68
2023/10/31 11:33:43;;;;;;;23.48;22.20;;;;;;;;;;5060130;28;20059;-67
2023/10/31 11:36:10;;;;;;;21.98;20.77;;;;;;;;;;5061047;28;20102;-66
2023/10/31 11:38:37;;;;;;;20.58;19.45;;;;;;;;;;5058513;28;20055;-64
2023/10/31 11:41:04;;;;;;;19.98;18.88;;;;;;;;;;5057686;28;20097;-64
2023/10/31 11:43:38;;;;;;;19.45;18.35;;;;;;;;;;5059076;28;20032;-64
2023/10/31 11:46:04;;;;;;;19.67;18.58;;;;;;;;;;5055000;28;20110;-64
2023/10/31 11:48:51;;;;;;;18.50;17.50;;;;;;;;;;5057953;28;20027;-65
2023/10/31 11:51:16;;;;;;;19.58;18.48;;;;;;;;;;5058993;28;20048;-67
2023/10/31 11:53:43;;;;;;;20.55;19.45;;;;;;;;;;5059517;28;20033;-67
2023/10/31 11:56:12;;;;;;;20.73;19.63;;;;;;;;;;5063126;28;20580;-67
2023/10/31 11:58:37;;;;;;;20.67;19.58;;;;;;;;;;5060823;28;20043;-65
2023/10/31 12:01:08;;;;;;;22.05;20.83;;;;;;;;;;5063727;28;20040;-64
2023/10/31 12:03:51;;;;;;;23.02;21.83;;;;;;;;;;5058225;28;20108;-64
2023/10/31 12:06:17;;;;;;;20.58;19.48;;;;;;;;;;5062591;28;20036;-64
2023/10/31 12:08:43;;;;;;;22.83;21.52;;;;;;;;;;5041884;28;20033;-64
2023/10/31 12:11:11;;;;;;;22.25;21.05;;;;;;;;;;5060920;28;20036;-67
2023/10/31 12:13:42;;;;;;;20.00;18.90;;;;;;;;;;5057046;28;20054;-67
2023/10/31 12:16:09;;;;;;;20.80;19.70;;;;;;;;;;5058166;28;20036;-67
2023/10/31 12:18:35;;;;;;;21.55;20.35;;;;;;;;;;5061206;28;20051;-66
2023/10/31 12:21:01;;;;;;;22.05;20.85;;;;;;;;;;5055793;28;20047;-67
2023/10/31 12:23:27;;;;;;;21.88;20.67;;;;;;;;;;5059551;28;20036;-67
2023/10/31 12:25:53;;;;;;;25.00;23.42;;;;;;;;;;5055907;28;20029;-67
2023/10/31 12:28:20;;;;;;;22.65;21.35;;;;;;;;;;5058749;28;20170;-67
2023/10/31 12:30:47;;;;;;;22.88;21.67;;;;;;;;;;5058118;28;20454;-68
2023/10/31 12:33:12;;;;;;;22.80;21.60;;;;;;;;;;5059570;28;20037;-67
2023/10/31 12:35:38;;;;;;;23.85;22.55;;;;;;;;;;5054111;28;20036;-67
2023/10/31 12:38:04;;;;;;;23.60;22.38;;;;;;;;;;5060476;28;20021;-67
2023/10/31 12:40:30;;;;;;;25.05;23.65;;;;;;;;;;5056451;28;20044;-66
2023/10/31 12:42:56;;;;;;;26.17;24.77;;;;;;;;;;5060489;28;20032;-67
2023/10/31 12:45:21;;;;;;;25.30;24.00;;;;;;;;;;5059916;28;20398;-67
2023/10/31 12:48:06;;;;;;;23.90;22.60;;;;;;;;;;5059962;28;20115;-67
2023/10/31 12:50:40;;;;;;;26.58;25.17;;;;;;;;;;5062675;28;20098;-67
2023/10/31 12:53:06;;;;;;;24.70;23.15;;;;;;;;;;5059228;28;20515;-67
2023/10/31 12:55:38;;;;;;;28.58;26.90;;;;;;;;;;5057932;28;20754;-66
2023/10/31 12:58:04;;;;;;;23.77;22.50;;;;;;;;;;5058088;28;20036;-66
2023/10/31 13:00:34;;;;;;;26.98;25.58;;;;;;;;;;5059356;28;20078;-66
2023/10/31 13:03:02;;;;;;;22.20;21.00;;;;;;;;;;5061333;28;20557;-67
2023/10/31 13:05:28;;;;;;;24.00;22.70;;;;;;;;;;5060750;28;20037;-64
2023/10/31 13:07:56;;;;;;;26.00;24.60;;;;;;;;;;5061814;28;20029;-64
2023/10/31 13:10:23;;;;;;;23.67;22.38;;;;;;;;;;5059337;28;20347;-64
2023/10/31 13:12:49;;;;;;;26.48;24.80;;;;;;;;;;5060206;28;20036;-64
2023/10/31 13:15:19;;;;;;;25.27;23.98;;;;;;;;;;5064480;28;20462;-64
2023/10/31 13:17:44;;;;;;;27.67;26.23;;;;;;;;;;5062162;28;20029;-66
2023/10/31 13:20:12;;;;;;;26.67;24.90;;;;;;;;;;5061925;28;20036;-65
2023/10/31 13:22:38;;;;;;;26.25;24.85;;;;;;;;;;5058981;28;20032;-66
2023/10/31 13:25:04;;;;;;;25.98;24.58;;;;;;;;;;5058290;28;20025;-66
2023/10/31 13:27:31;;;;;;;23.50;22.20;;;;;;;;;;5060560;28;20109;-66
2023/10/31 13:29:57;;;;;;;24.38;23.08;;;;;;;;;;5063595;28;20042;-66
2023/10/31 13:32:22;;;;;;;24.95;23.65;;;;;;;;;;5057442;28;20028;-66
2023/10/31 13:34:48;;;;;;;27.73;26.27;;;;;;;;;;5063165;28;20301;-67
2023/10/31 13:37:13;;;;;;;23.77;22.48;;;;;;;;;;5058630;28;20132;-68
2023/10/31 13:39:38;;;;;;;26.65;25.25;;;;;;;;;;5060190;28;20727;-67
2023/10/31 13:42:04;;;;;;;25.88;24.48;;;;;;;;;;5061285;28;20017;-67
2023/10/31 13:44:30;;;;;;;23.35;22.13;;;;;;;;;;5059319;28;20033;-62
2023/10/31 13:46:55;;;;;;;25.23;23.92;;;;;;;;;;5055328;28;20108;-66
2023/10/31 13:49:20;;;;;;;28.13;26.63;;;;;;;;;;5063676;28;20154;-65
2023/10/31 13:51:47;;;;;;;25.02;23.67;;;;;;;;;;5061509;28;20111;-66
2023/10/31 13:54:13;;;;;;;25.80;24.45;;;;;;;;;;5059455;28;20032;-65
2023/10/31 13:56:38;;;;;;;25.63;24.17;;;;;;;;;;5062184;28;20032;-65
2023/10/31 13:59:03;;;;;;;25.00;23.70;;;;;;;;;;5060233;28;20465;-66
2023/10/31 14:01:29;;;;;;;23.48;21.95;;;;;;;;;;5060287;28;20267;-65
2023/10/31 14:03:55;;;;;;;23.70;22.40;;;;;;;;;;5060286;28;20034;-67
2023/10/31 14:06:20;;;;;;;24.90;23.60;;;;;;;;;;5061064;28;20048;-66
2023/10/31 14:08:45;;;;;;;24.38;23.08;;;;;;;;;;5059244;28;20099;-64
2023/10/31 14:11:12;;;;;;;21.90;20.65;;;;;;;;;;5058981;28;20033;-64